KMGJ/MGJ METAR and TAF weather

Enter ICAO airport designator
Station Type Date Time Source
KMGJ METAR 2019/10/15 02:54 UTC NOAA

KMGJ 150254Z AUTO 35003KT 10SM CLR 12/04 A3005 RMK AO2 SLP177 T01170039 53030


Station Type Date Time Source
KMGJ Decoded METAR 2019/10/15 02:54 UTC NOAA

MONTGOMERY ORANGE CO AIRPORT, NY, United States (KMGJ) 41-31N 074-16W 108M
Oct 14, 2019 - 10:54 PM EDT / 2019.10.15 0254 UTC
Wind: from the N (350 degrees) at 3 MPH (3 KT):0
Visibility: 10 mile(s):0
Sky conditions: clear
Temperature: 53.1 F (11.7 C)
Dew Point: 39.0 F (3.9 C)
Relative Humidity: 58%
Pressure (altimeter): 30.05 in. Hg (1017 hPa)
Pressure tendency: 0.09 inches (3.0 hPa) higher than three hours ago
ob: KMGJ 150254Z AUTO 35003KT 10SM CLR 12/04 A3005 RMK AO2 SLP177 T01170039 53030
cycle: 3

Station Type Date Time Source
KMGJ TAF UTC NOAA

Error!

Example: see airport list